EIKN

Ireland West Knock Airport

Charleston, Ireland
METAR EIKN 181230Z 20010KT 170V230 9999 SCT016 FEW018CB BKN044 06/05 Q0990 NOSIG
Observed Flight Rules
Dec-18 @ 12:30 UTC (38 minutes ago) Visual Flight Rules
Wind Visibility Clouds
200° at 10 knots 10,000+ meters
  • Scattered at 1,600' AGL
  • Few at 1,800' AGL
  • Broken at 4,400' AGL
Temperatures Readings
Current 6°C / 43°F
Dewpoint 5°C / 41°F
Humidity 93%
Altimeter 29.23" Hg
Pressure 990 hPa
Elevation 64
METAR EIKN 181230Z 20010KT 170V230 9999 SCT016 FEW018CB BKN044 06/05 Q0990 NOSIG
Observed Flight Rules
Dec-18 @ 12:30 UTC
(38 minutes ago)
VFR
Wind Visibility
200° at 10 knots 10,000+ meters
Clouds
  • Scattered at 1,600' AGL
  • Few at 1,800' AGL
  • Broken at 4,400' AGL
Temperature Dewpoint
6°C / 43°F 5°C / 41°F
Humidity Altimeter Pressure
93% 29.23" Hg 990 hPa